sensor_id;sensor_type;location;lat;lon;timestamp;P1;durP1;ratioP1;P2;durP2;ratioP2
9445;SDS011;4761;49.490;10.908;2022-12-10T00:01:09;3.83;;;3.10;;
9445;SDS011;4761;49.490;10.908;2022-12-10T00:03:37;3.30;;;3.00;;
9445;SDS011;4761;49.490;10.908;2022-12-10T00:06:04;3.93;;;3.17;;
9445;SDS011;4761;49.490;10.908;2022-12-10T00:08:32;3.90;;;3.30;;
9445;SDS011;4761;49.490;10.908;2022-12-10T00:10:58;4.17;;;3.70;;
9445;SDS011;4761;49.490;10.908;2022-12-10T00:13:24;3.83;;;3.43;;
9445;SDS011;4761;49.490;10.908;2022-12-10T00:15:50;3.40;;;3.10;;
9445;SDS011;4761;49.490;10.908;2022-12-10T00:18:15;3.37;;;3.07;;
9445;SDS011;4761;49.490;10.908;2022-12-10T00:20:41;3.50;;;2.97;;
9445;SDS011;4761;49.490;10.908;2022-12-10T00:23:06;3.60;;;3.30;;
9445;SDS011;4761;49.490;10.908;2022-12-10T00:25:32;3.87;;;3.40;;
9445;SDS011;4761;49.490;10.908;2022-12-10T00:27:58;3.60;;;3.30;;
9445;SDS011;4761;49.490;10.908;2022-12-10T00:30:23;3.80;;;3.47;;
9445;SDS011;4761;49.490;10.908;2022-12-10T00:32:49;3.90;;;3.40;;
9445;SDS011;4761;49.490;10.908;2022-12-10T00:35:14;3.43;;;3.13;;
9445;SDS011;4761;49.490;10.908;2022-12-10T00:37:40;3.40;;;3.10;;
9445;SDS011;4761;49.490;10.908;2022-12-10T00:40:06;3.37;;;3.07;;
9445;SDS011;4761;49.490;10.908;2022-12-10T00:42:32;3.40;;;3.10;;
9445;SDS011;4761;49.490;10.908;2022-12-10T00:44:57;3.40;;;3.00;;
9445;SDS011;4761;49.490;10.908;2022-12-10T00:47:23;3.80;;;3.40;;
9445;SDS011;4761;49.490;10.908;2022-12-10T00:49:48;3.20;;;2.90;;
9445;SDS011;4761;49.490;10.908;2022-12-10T00:52:14;3.20;;;2.90;;
9445;SDS011;4761;49.490;10.908;2022-12-10T00:54:39;3.63;;;3.30;;
9445;SDS011;4761;49.490;10.908;2022-12-10T00:57:05;3.60;;;3.30;;
9445;SDS011;4761;49.490;10.908;2022-12-10T00:59:31;3.23;;;3.03;;
9445;SDS011;4761;49.490;10.908;2022-12-10T01:01:57;3.63;;;3.33;;
9445;SDS011;4761;49.490;10.908;2022-12-10T01:04:22;4.10;;;3.03;;
9445;SDS011;4761;49.490;10.908;2022-12-10T01:06:49;3.53;;;3.23;;
9445;SDS011;4761;49.490;10.908;2022-12-10T01:09:18;3.40;;;3.10;;
9445;SDS011;4761;49.490;10.908;2022-12-10T01:11:49;3.50;;;3.20;;
9445;SDS011;4761;49.490;10.908;2022-12-10T01:14:17;4.23;;;3.10;;
9445;SDS011;4761;49.490;10.908;2022-12-10T01:16:45;3.47;;;3.17;;
9445;SDS011;4761;49.490;10.908;2022-12-10T01:19:11;3.37;;;3.07;;
9445;SDS011;4761;49.490;10.908;2022-12-10T01:21:38;3.80;;;3.40;;
9445;SDS011;4761;49.490;10.908;2022-12-10T01:24:04;4.10;;;3.30;;
9445;SDS011;4761;49.490;10.908;2022-12-10T01:26:30;3.70;;;3.33;;
9445;SDS011;4761;49.490;10.908;2022-12-10T01:28:58;3.50;;;3.20;;
9445;SDS011;4761;49.490;10.908;2022-12-10T01:31:28;3.20;;;2.90;;
9445;SDS011;4761;49.490;10.908;2022-12-10T01:33:55;3.63;;;3.33;;
9445;SDS011;4761;49.490;10.908;2022-12-10T01:36:27;3.43;;;3.13;;
9445;SDS011;4761;49.490;10.908;2022-12-10T01:38:57;5.10;;;3.50;;
9445;SDS011;4761;49.490;10.908;2022-12-10T01:41:25;3.43;;;3.13;;
9445;SDS011;4761;49.490;10.908;2022-12-10T01:44:03;3.40;;;3.10;;
9445;SDS011;4761;49.490;10.908;2022-12-10T01:46:39;3.27;;;2.97;;
9445;SDS011;4761;49.490;10.908;2022-12-10T01:49:07;3.40;;;3.10;;
9445;SDS011;4761;49.490;10.908;2022-12-10T01:51:38;3.30;;;2.80;;
9445;SDS011;4761;49.490;10.908;2022-12-10T01:54:07;3.43;;;3.13;;
9445;SDS011;4761;49.490;10.908;2022-12-10T01:56:37;3.57;;;3.27;;
9445;SDS011;4761;49.490;10.908;2022-12-10T01:59:05;3.67;;;3.27;;
9445;SDS011;4761;49.490;10.908;2022-12-10T02:04:19;3.17;;;2.90;;
9445;SDS011;4761;49.490;10.908;2022-12-10T02:07:27;3.47;;;3.17;;
9445;SDS011;4761;49.490;10.908;2022-12-10T02:10:09;3.00;;;2.80;;
9445;SDS011;4761;49.490;10.908;2022-12-10T02:15:24;3.20;;;2.90;;
9445;SDS011;4761;49.490;10.908;2022-12-10T02:17:54;3.57;;;3.27;;
9445;SDS011;4761;49.490;10.908;2022-12-10T02:20:40;3.57;;;3.23;;
9445;SDS011;4761;49.490;10.908;2022-12-10T02:23:10;3.00;;;2.80;;
9445;SDS011;4761;49.490;10.908;2022-12-10T02:28:31;3.40;;;3.10;;
9445;SDS011;4761;49.490;10.908;2022-12-10T02:31:28;3.53;;;3.23;;
9445;SDS011;4761;49.490;10.908;2022-12-10T02:33:57;3.50;;;3.20;;
9445;SDS011;4761;49.490;10.908;2022-12-10T02:36:25;3.50;;;3.20;;
9445;SDS011;4761;49.490;10.908;2022-12-10T02:38:56;3.13;;;2.83;;
9445;SDS011;4761;49.490;10.908;2022-12-10T02:41:26;3.33;;;3.03;;
9445;SDS011;4761;49.490;10.908;2022-12-10T02:43:56;2.97;;;2.77;;
9445;SDS011;4761;49.490;10.908;2022-12-10T02:46:23;3.43;;;3.13;;
9445;SDS011;4761;49.490;10.908;2022-12-10T02:48:50;3.10;;;2.80;;
9445;SDS011;4761;49.490;10.908;2022-12-10T02:51:17;3.30;;;3.00;;
9445;SDS011;4761;49.490;10.908;2022-12-10T02:53:43;4.47;;;3.30;;
9445;SDS011;4761;49.490;10.908;2022-12-10T02:56:14;3.40;;;3.10;;
9445;SDS011;4761;49.490;10.908;2022-12-10T02:59:10;3.40;;;3.10;;
9445;SDS011;4761;49.490;10.908;2022-12-10T03:04:47;3.60;;;3.30;;
9445;SDS011;4761;49.490;10.908;2022-12-10T03:07:25;3.33;;;3.03;;
9445;SDS011;4761;49.490;10.908;2022-12-10T03:10:11;2.90;;;2.70;;
9445;SDS011;4761;49.490;10.908;2022-12-10T03:12:50;3.30;;;3.00;;
9445;SDS011;4761;49.490;10.908;2022-12-10T03:15:25;3.20;;;3.00;;
9445;SDS011;4761;49.490;10.908;2022-12-10T03:17:57;3.23;;;2.93;;
9445;SDS011;4761;49.490;10.908;2022-12-10T03:20:27;3.20;;;2.90;;
9445;SDS011;4761;49.490;10.908;2022-12-10T03:22:53;3.30;;;3.00;;
9445;SDS011;4761;49.490;10.908;2022-12-10T03:25:21;3.10;;;2.80;;
9445;SDS011;4761;49.490;10.908;2022-12-10T03:27:49;3.00;;;2.70;;
9445;SDS011;4761;49.490;10.908;2022-12-10T03:30:18;3.20;;;2.90;;
9445;SDS011;4761;49.490;10.908;2022-12-10T03:32:44;3.27;;;2.97;;
9445;SDS011;4761;49.490;10.908;2022-12-10T03:35:10;3.40;;;3.10;;
9445;SDS011;4761;49.490;10.908;2022-12-10T03:37:37;3.10;;;2.80;;
9445;SDS011;4761;49.490;10.908;2022-12-10T03:40:03;3.07;;;2.80;;
9445;SDS011;4761;49.490;10.908;2022-12-10T03:42:30;3.13;;;2.90;;
9445;SDS011;4761;49.490;10.908;2022-12-10T03:44:56;3.20;;;2.90;;
9445;SDS011;4761;49.490;10.908;2022-12-10T03:47:21;3.20;;;2.90;;
9445;SDS011;4761;49.490;10.908;2022-12-10T03:49:48;2.97;;;2.77;;
9445;SDS011;4761;49.490;10.908;2022-12-10T03:52:13;2.87;;;2.67;;
9445;SDS011;4761;49.490;10.908;2022-12-10T03:54:39;3.27;;;2.90;;
9445;SDS011;4761;49.490;10.908;2022-12-10T03:57:05;3.30;;;3.00;;
9445;SDS011;4761;49.490;10.908;2022-12-10T03:59:30;2.97;;;2.77;;
9445;SDS011;4761;49.490;10.908;2022-12-10T04:01:56;2.90;;;2.70;;
9445;SDS011;4761;49.490;10.908;2022-12-10T04:04:21;3.30;;;3.00;;
9445;SDS011;4761;49.490;10.908;2022-12-10T04:06:47;3.10;;;2.80;;
9445;SDS011;4761;49.490;10.908;2022-12-10T04:09:13;3.30;;;3.00;;
9445;SDS011;4761;49.490;10.908;2022-12-10T04:11:40;3.30;;;3.00;;
9445;SDS011;4761;49.490;10.908;2022-12-10T04:14:05;3.70;;;2.93;;
9445;SDS011;4761;49.490;10.908;2022-12-10T04:16:51;3.07;;;2.80;;
9445;SDS011;4761;49.490;10.908;2022-12-10T04:19:17;2.97;;;2.77;;
9445;SDS011;4761;49.490;10.908;2022-12-10T04:21:44;3.20;;;2.70;;
9445;SDS011;4761;49.490;10.908;2022-12-10T04:24:29;3.37;;;3.07;;
9445;SDS011;4761;49.490;10.908;2022-12-10T04:27:16;3.40;;;3.10;;
9445;SDS011;4761;49.490;10.908;2022-12-10T04:29:48;3.43;;;3.13;;
9445;SDS011;4761;49.490;10.908;2022-12-10T04:32:14;3.43;;;3.13;;
9445;SDS011;4761;49.490;10.908;2022-12-10T04:34:40;2.60;;;2.40;;
9445;SDS011;4761;49.490;10.908;2022-12-10T04:37:06;3.50;;;3.20;;
9445;SDS011;4761;49.490;10.908;2022-12-10T04:39:32;3.57;;;3.27;;
9445;SDS011;4761;49.490;10.908;2022-12-10T04:41:58;3.00;;;2.80;;
9445;SDS011;4761;49.490;10.908;2022-12-10T04:44:25;2.80;;;2.60;;
9445;SDS011;4761;49.490;10.908;2022-12-10T04:46:51;3.37;;;3.07;;
9445;SDS011;4761;49.490;10.908;2022-12-10T04:49:17;2.90;;;2.70;;
9445;SDS011;4761;49.490;10.908;2022-12-10T04:51:43;3.17;;;2.87;;
9445;SDS011;4761;49.490;10.908;2022-12-10T04:54:09;3.20;;;2.90;;
9445;SDS011;4761;49.490;10.908;2022-12-10T04:56:35;2.73;;;2.53;;
9445;SDS011;4761;49.490;10.908;2022-12-10T04:59:02;2.70;;;2.50;;
9445;SDS011;4761;49.490;10.908;2022-12-10T05:01:28;3.60;;;3.13;;
9445;SDS011;4761;49.490;10.908;2022-12-10T05:03:54;3.30;;;3.00;;
9445;SDS011;4761;49.490;10.908;2022-12-10T05:06:22;3.03;;;2.77;;
9445;SDS011;4761;49.490;10.908;2022-12-10T05:08:48;3.23;;;2.93;;
9445;SDS011;4761;49.490;10.908;2022-12-10T05:11:14;3.10;;;2.80;;
9445;SDS011;4761;49.490;10.908;2022-12-10T05:13:42;3.07;;;2.77;;
9445;SDS011;4761;49.490;10.908;2022-12-10T05:16:09;3.00;;;2.80;;
9445;SDS011;4761;49.490;10.908;2022-12-10T05:18:36;2.83;;;2.63;;
9445;SDS011;4761;49.490;10.908;2022-12-10T05:21:03;3.40;;;3.10;;
9445;SDS011;4761;49.490;10.908;2022-12-10T05:23:30;3.00;;;2.73;;
9445;SDS011;4761;49.490;10.908;2022-12-10T05:28:26;3.37;;;3.07;;
9445;SDS011;4761;49.490;10.908;2022-12-10T05:30:52;3.83;;;3.00;;
9445;SDS011;4761;49.490;10.908;2022-12-10T05:33:17;3.10;;;2.90;;
9445;SDS011;4761;49.490;10.908;2022-12-10T05:35:43;3.10;;;2.80;;
9445;SDS011;4761;49.490;10.908;2022-12-10T05:38:09;3.17;;;2.87;;
9445;SDS011;4761;49.490;10.908;2022-12-10T05:40:38;2.80;;;2.60;;
9445;SDS011;4761;49.490;10.908;2022-12-10T05:43:03;3.60;;;3.30;;
9445;SDS011;4761;49.490;10.908;2022-12-10T05:45:31;2.93;;;2.67;;
9445;SDS011;4761;49.490;10.908;2022-12-10T05:47:57;3.43;;;3.13;;
9445;SDS011;4761;49.490;10.908;2022-12-10T05:50:23;3.23;;;2.93;;
9445;SDS011;4761;49.490;10.908;2022-12-10T05:52:49;3.00;;;2.73;;
9445;SDS011;4761;49.490;10.908;2022-12-10T05:55:15;3.40;;;3.10;;
9445;SDS011;4761;49.490;10.908;2022-12-10T05:57:41;3.50;;;3.20;;
9445;SDS011;4761;49.490;10.908;2022-12-10T06:00:07;3.00;;;2.80;;
9445;SDS011;4761;49.490;10.908;2022-12-10T06:02:33;3.47;;;3.17;;
9445;SDS011;4761;49.490;10.908;2022-12-10T06:04:58;3.87;;;3.30;;
9445;SDS011;4761;49.490;10.908;2022-12-10T06:07:24;12.53;;;11.33;;
9445;SDS011;4761;49.490;10.908;2022-12-10T06:09:50;13.73;;;12.43;;
9445;SDS011;4761;49.490;10.908;2022-12-10T06:12:15;12.17;;;10.97;;
9445;SDS011;4761;49.490;10.908;2022-12-10T06:14:41;13.37;;;12.07;;
9445;SDS011;4761;49.490;10.908;2022-12-10T06:17:06;13.37;;;12.10;;
9445;SDS011;4761;49.490;10.908;2022-12-10T06:19:32;13.47;;;12.13;;
9445;SDS011;4761;49.490;10.908;2022-12-10T06:21:58;14.10;;;12.80;;
9445;SDS011;4761;49.490;10.908;2022-12-10T06:24:23;12.73;;;11.53;;
9445;SDS011;4761;49.490;10.908;2022-12-10T06:26:49;12.87;;;11.57;;
9445;SDS011;4761;49.490;10.908;2022-12-10T06:29:14;12.83;;;11.53;;
9445;SDS011;4761;49.490;10.908;2022-12-10T06:31:40;12.97;;;11.67;;
9445;SDS011;4761;49.490;10.908;2022-12-10T06:34:05;12.47;;;11.30;;
9445;SDS011;4761;49.490;10.908;2022-12-10T06:36:31;12.20;;;10.90;;
9445;SDS011;4761;49.490;10.908;2022-12-10T06:38:56;12.93;;;11.63;;
9445;SDS011;4761;49.490;10.908;2022-12-10T06:41:22;12.53;;;11.43;;
9445;SDS011;4761;49.490;10.908;2022-12-10T06:43:48;12.83;;;11.63;;
9445;SDS011;4761;49.490;10.908;2022-12-10T06:46:14;12.73;;;11.53;;
9445;SDS011;4761;49.490;10.908;2022-12-10T06:48:41;12.87;;;11.67;;
9445;SDS011;4761;49.490;10.908;2022-12-10T06:51:07;12.63;;;11.53;;
9445;SDS011;4761;49.490;10.908;2022-12-10T06:53:34;12.50;;;11.30;;
9445;SDS011;4761;49.490;10.908;2022-12-10T06:56:01;12.30;;;11.10;;
9445;SDS011;4761;49.490;10.908;2022-12-10T06:58:28;12.60;;;11.40;;
9445;SDS011;4761;49.490;10.908;2022-12-10T07:00:54;7.80;;;7.10;;
9445;SDS011;4761;49.490;10.908;2022-12-10T07:03:27;12.40;;;11.20;;
9445;SDS011;4761;49.490;10.908;2022-12-10T07:05:52;12.60;;;11.40;;
9445;SDS011;4761;49.490;10.908;2022-12-10T07:08:21;12.87;;;11.63;;
9445;SDS011;4761;49.490;10.908;2022-12-10T07:10:48;11.90;;;10.80;;
9445;SDS011;4761;49.490;10.908;2022-12-10T07:13:13;12.93;;;11.73;;
9445;SDS011;4761;49.490;10.908;2022-12-10T07:15:39;12.83;;;11.63;;
9445;SDS011;4761;49.490;10.908;2022-12-10T07:18:05;12.33;;;11.23;;
9445;SDS011;4761;49.490;10.908;2022-12-10T07:20:30;12.13;;;10.93;;
9445;SDS011;4761;49.490;10.908;2022-12-10T07:22:55;13.83;;;12.53;;
9445;SDS011;4761;49.490;10.908;2022-12-10T07:25:21;13.03;;;11.83;;
9445;SDS011;4761;49.490;10.908;2022-12-10T07:27:46;13.60;;;12.30;;
9445;SDS011;4761;49.490;10.908;2022-12-10T07:30:12;14.00;;;12.70;;
9445;SDS011;4761;49.490;10.908;2022-12-10T07:32:38;13.73;;;12.37;;
9445;SDS011;4761;49.490;10.908;2022-12-10T07:35:03;14.30;;;12.90;;
9445;SDS011;4761;49.490;10.908;2022-12-10T07:37:29;14.00;;;12.60;;
9445;SDS011;4761;49.490;10.908;2022-12-10T07:39:55;13.50;;;12.30;;
9445;SDS011;4761;49.490;10.908;2022-12-10T07:42:20;14.60;;;13.30;;
9445;SDS011;4761;49.490;10.908;2022-12-10T07:44:47;14.47;;;13.07;;
9445;SDS011;4761;49.490;10.908;2022-12-10T07:47:13;13.73;;;12.43;;
9445;SDS011;4761;49.490;10.908;2022-12-10T07:49:38;13.93;;;12.67;;
9445;SDS011;4761;49.490;10.908;2022-12-10T07:52:04;14.67;;;13.27;;
9445;SDS011;4761;49.490;10.908;2022-12-10T07:54:29;14.90;;;13.50;;
9445;SDS011;4761;49.490;10.908;2022-12-10T07:56:55;14.13;;;12.83;;
9445;SDS011;4761;49.490;10.908;2022-12-10T07:59:20;14.60;;;13.17;;
9445;SDS011;4761;49.490;10.908;2022-12-10T08:01:46;14.57;;;13.27;;
9445;SDS011;4761;49.490;10.908;2022-12-10T08:04:12;14.00;;;12.60;;
9445;SDS011;4761;49.490;10.908;2022-12-10T08:06:38;14.27;;;12.87;;
9445;SDS011;4761;49.490;10.908;2022-12-10T08:09:03;14.57;;;13.17;;
9445;SDS011;4761;49.490;10.908;2022-12-10T08:11:29;14.47;;;13.07;;
9445;SDS011;4761;49.490;10.908;2022-12-10T08:13:54;14.50;;;13.10;;
9445;SDS011;4761;49.490;10.908;2022-12-10T08:16:21;15.53;;;14.13;;
9445;SDS011;4761;49.490;10.908;2022-12-10T08:18:50;14.47;;;13.07;;
9445;SDS011;4761;49.490;10.908;2022-12-10T08:21:16;14.67;;;13.30;;
9445;SDS011;4761;49.490;10.908;2022-12-10T08:23:47;14.63;;;13.13;;
9445;SDS011;4761;49.490;10.908;2022-12-10T08:26:15;15.07;;;13.70;;
9445;SDS011;4761;49.490;10.908;2022-12-10T08:28:42;14.40;;;13.00;;
9445;SDS011;4761;49.490;10.908;2022-12-10T08:31:08;14.60;;;13.20;;
9445;SDS011;4761;49.490;10.908;2022-12-10T08:33:36;14.30;;;13.00;;
9445;SDS011;4761;49.490;10.908;2022-12-10T08:36:03;14.40;;;13.00;;
9445;SDS011;4761;49.490;10.908;2022-12-10T08:38:30;14.97;;;13.57;;
9445;SDS011;4761;49.490;10.908;2022-12-10T08:40:56;15.73;;;14.23;;
9445;SDS011;4761;49.490;10.908;2022-12-10T08:43:22;14.80;;;13.40;;
9445;SDS011;4761;49.490;10.908;2022-12-10T08:45:48;15.67;;;14.13;;
9445;SDS011;4761;49.490;10.908;2022-12-10T08:48:14;17.20;;;15.50;;
9445;SDS011;4761;49.490;10.908;2022-12-10T08:50:39;17.20;;;15.50;;
9445;SDS011;4761;49.490;10.908;2022-12-10T08:53:06;17.80;;;16.03;;
9445;SDS011;4761;49.490;10.908;2022-12-10T08:55:32;16.33;;;14.73;;
9445;SDS011;4761;49.490;10.908;2022-12-10T08:57:58;15.87;;;14.33;;
9445;SDS011;4761;49.490;10.908;2022-12-10T09:00:24;12.37;;;11.23;;
9445;SDS011;4761;49.490;10.908;2022-12-10T09:02:51;3.93;;;3.57;;
9445;SDS011;4761;49.490;10.908;2022-12-10T09:05:16;3.53;;;3.23;;
9445;SDS011;4761;49.490;10.908;2022-12-10T09:07:42;3.53;;;3.23;;
9445;SDS011;4761;49.490;10.908;2022-12-10T09:10:11;3.70;;;3.40;;
9445;SDS011;4761;49.490;10.908;2022-12-10T09:12:37;3.97;;;3.57;;
9445;SDS011;4761;49.490;10.908;2022-12-10T09:15:03;3.57;;;3.23;;
9445;SDS011;4761;49.490;10.908;2022-12-10T09:17:29;3.50;;;3.13;;
9445;SDS011;4761;49.490;10.908;2022-12-10T09:19:55;3.10;;;2.90;;
9445;SDS011;4761;49.490;10.908;2022-12-10T09:22:20;3.67;;;3.30;;
9445;SDS011;4761;49.490;10.908;2022-12-10T09:24:46;3.60;;;3.30;;
9445;SDS011;4761;49.490;10.908;2022-12-10T09:27:11;3.73;;;3.43;;
9445;SDS011;4761;49.490;10.908;2022-12-10T09:29:37;3.60;;;3.30;;
9445;SDS011;4761;49.490;10.908;2022-12-10T09:32:02;3.60;;;3.30;;
9445;SDS011;4761;49.490;10.908;2022-12-10T09:34:28;3.50;;;3.20;;
9445;SDS011;4761;49.490;10.908;2022-12-10T09:36:53;3.43;;;3.13;;
9445;SDS011;4761;49.490;10.908;2022-12-10T09:39:19;3.53;;;3.23;;
9445;SDS011;4761;49.490;10.908;2022-12-10T09:41:56;3.60;;;3.30;;
9445;SDS011;4761;49.490;10.908;2022-12-10T09:45:09;4.03;;;3.60;;
9445;SDS011;4761;49.490;10.908;2022-12-10T09:52:58;3.30;;;3.00;;
9445;SDS011;4761;49.490;10.908;2022-12-10T09:55:34;3.40;;;3.10;;
9445;SDS011;4761;49.490;10.908;2022-12-10T09:58:02;4.30;;;3.90;;
9445;SDS011;4761;49.490;10.908;2022-12-10T10:03:03;3.23;;;2.93;;
9445;SDS011;4761;49.490;10.908;2022-12-10T10:05:39;3.73;;;3.43;;
9445;SDS011;4761;49.490;10.908;2022-12-10T10:08:21;3.77;;;3.43;;
9445;SDS011;4761;49.490;10.908;2022-12-10T10:10:57;3.50;;;3.20;;
9445;SDS011;4761;49.490;10.908;2022-12-10T10:16:12;3.60;;;3.30;;
9445;SDS011;4761;49.490;10.908;2022-12-10T10:18:46;4.10;;;3.70;;
9445;SDS011;4761;49.490;10.908;2022-12-10T10:21:21;3.70;;;3.40;;
9445;SDS011;4761;49.490;10.908;2022-12-10T10:24:06;3.60;;;3.30;;
9445;SDS011;4761;49.490;10.908;2022-12-10T10:26:46;3.83;;;3.47;;
9445;SDS011;4761;49.490;10.908;2022-12-10T10:29:13;3.30;;;3.00;;
9445;SDS011;4761;49.490;10.908;2022-12-10T10:31:43;3.83;;;3.50;;
9445;SDS011;4761;49.490;10.908;2022-12-10T10:34:19;3.90;;;3.50;;
9445;SDS011;4761;49.490;10.908;2022-12-10T10:36:47;3.70;;;3.40;;
9445;SDS011;4761;49.490;10.908;2022-12-10T10:39:25;3.50;;;3.20;;
9445;SDS011;4761;49.490;10.908;2022-12-10T10:41:53;3.73;;;3.43;;
9445;SDS011;4761;49.490;10.908;2022-12-10T10:44:21;3.90;;;3.60;;
9445;SDS011;4761;49.490;10.908;2022-12-10T10:46:50;4.20;;;3.80;;
9445;SDS011;4761;49.490;10.908;2022-12-10T10:51:52;3.63;;;3.33;;
9445;SDS011;4761;49.490;10.908;2022-12-10T10:54:30;4.07;;;3.73;;
9445;SDS011;4761;49.490;10.908;2022-12-10T10:57:00;4.20;;;3.70;;
9445;SDS011;4761;49.490;10.908;2022-12-10T10:59:29;4.27;;;3.87;;
9445;SDS011;4761;49.490;10.908;2022-12-10T11:02:20;4.03;;;3.73;;
9445;SDS011;4761;49.490;10.908;2022-12-10T11:04:50;3.63;;;3.33;;
9445;SDS011;4761;49.490;10.908;2022-12-10T11:09:50;3.77;;;3.47;;
9445;SDS011;4761;49.490;10.908;2022-12-10T11:12:27;3.63;;;3.33;;
9445;SDS011;4761;49.490;10.908;2022-12-10T11:14:55;3.60;;;3.30;;
9445;SDS011;4761;49.490;10.908;2022-12-10T11:17:22;3.83;;;3.53;;
9445;SDS011;4761;49.490;10.908;2022-12-10T11:19:59;3.80;;;3.50;;
9445;SDS011;4761;49.490;10.908;2022-12-10T11:25:22;3.70;;;3.40;;
9445;SDS011;4761;49.490;10.908;2022-12-10T11:28:00;3.50;;;3.20;;
9445;SDS011;4761;49.490;10.908;2022-12-10T11:30:37;4.00;;;3.70;;
9445;SDS011;4761;49.490;10.908;2022-12-10T11:38:21;3.90;;;3.50;;
9445;SDS011;4761;49.490;10.908;2022-12-10T11:44:22;4.90;;;3.60;;
9445;SDS011;4761;49.490;10.908;2022-12-10T11:49:45;3.70;;;3.40;;
9445;SDS011;4761;49.490;10.908;2022-12-10T11:55:59;3.97;;;3.67;;
9445;SDS011;4761;49.490;10.908;2022-12-10T12:01:18;3.67;;;3.37;;
9445;SDS011;4761;49.490;10.908;2022-12-10T12:03:59;4.20;;;3.80;;
9445;SDS011;4761;49.490;10.908;2022-12-10T12:09:30;4.30;;;3.90;;
9445;SDS011;4761;49.490;10.908;2022-12-10T12:15:13;4.23;;;3.83;;
9445;SDS011;4761;49.490;10.908;2022-12-10T12:17:48;4.17;;;3.77;;
9445;SDS011;4761;49.490;10.908;2022-12-10T12:20:34;3.70;;;3.40;;
9445;SDS011;4761;49.490;10.908;2022-12-10T12:23:08;3.50;;;3.20;;
9445;SDS011;4761;49.490;10.908;2022-12-10T12:25:42;4.03;;;3.63;;
9445;SDS011;4761;49.490;10.908;2022-12-10T12:28:12;4.40;;;4.00;;
9445;SDS011;4761;49.490;10.908;2022-12-10T12:30:45;3.63;;;3.33;;
9445;SDS011;4761;49.490;10.908;2022-12-10T12:36:19;4.30;;;3.90;;
9445;SDS011;4761;49.490;10.908;2022-12-10T12:41:39;3.70;;;3.40;;
9445;SDS011;4761;49.490;10.908;2022-12-10T12:46:55;4.00;;;3.60;;
9445;SDS011;4761;49.490;10.908;2022-12-10T12:49:41;4.07;;;3.70;;
9445;SDS011;4761;49.490;10.908;2022-12-10T12:55:11;3.77;;;3.47;;
9445;SDS011;4761;49.490;10.908;2022-12-10T12:57:47;3.30;;;3.07;;
9445;SDS011;4761;49.490;10.908;2022-12-10T13:00:19;3.50;;;3.20;;
9445;SDS011;4761;49.490;10.908;2022-12-10T13:05:28;3.47;;;3.17;;
9445;SDS011;4761;49.490;10.908;2022-12-10T13:11:29;3.90;;;3.57;;
9445;SDS011;4761;49.490;10.908;2022-12-10T13:13:39;3.50;;;3.20;;
9445;SDS011;4761;49.490;10.908;2022-12-10T13:16:58;3.53;;;3.23;;
9445;SDS011;4761;49.490;10.908;2022-12-10T13:19:27;3.60;;;3.30;;
9445;SDS011;4761;49.490;10.908;2022-12-10T13:22:10;3.70;;;3.30;;
9445;SDS011;4761;49.490;10.908;2022-12-10T13:32:13;3.73;;;3.43;;
9445;SDS011;4761;49.490;10.908;2022-12-10T13:34:41;3.77;;;3.47;;
9445;SDS011;4761;49.490;10.908;2022-12-10T13:37:14;3.73;;;3.40;;
9445;SDS011;4761;49.490;10.908;2022-12-10T13:40:37;3.63;;;3.33;;
9445;SDS011;4761;49.490;10.908;2022-12-10T13:46:25;3.63;;;3.33;;
9445;SDS011;4761;49.490;10.908;2022-12-10T13:48:54;3.40;;;3.10;;
9445;SDS011;4761;49.490;10.908;2022-12-10T13:57:07;3.53;;;3.23;;
9445;SDS011;4761;49.490;10.908;2022-12-10T14:08:06;3.80;;;3.50;;
9445;SDS011;4761;49.490;10.908;2022-12-10T14:10:38;3.30;;;3.07;;
9445;SDS011;4761;49.490;10.908;2022-12-10T14:13:06;3.30;;;3.00;;
9445;SDS011;4761;49.490;10.908;2022-12-10T14:15:33;3.50;;;3.20;;
9445;SDS011;4761;49.490;10.908;2022-12-10T14:18:10;3.47;;;3.17;;
9445;SDS011;4761;49.490;10.908;2022-12-10T14:20:39;3.70;;;3.40;;
9445;SDS011;4761;49.490;10.908;2022-12-10T14:23:26;3.50;;;3.20;;
9445;SDS011;4761;49.490;10.908;2022-12-10T14:26:03;3.53;;;3.23;;
9445;SDS011;4761;49.490;10.908;2022-12-10T14:29:12;3.57;;;3.27;;
9445;SDS011;4761;49.490;10.908;2022-12-10T14:31:43;3.83;;;3.53;;
9445;SDS011;4761;49.490;10.908;2022-12-10T14:34:13;3.50;;;3.20;;
9445;SDS011;4761;49.490;10.908;2022-12-10T14:36:45;3.70;;;3.40;;
9445;SDS011;4761;49.490;10.908;2022-12-10T14:39:17;3.60;;;3.30;;
9445;SDS011;4761;49.490;10.908;2022-12-10T14:41:49;3.60;;;3.30;;
9445;SDS011;4761;49.490;10.908;2022-12-10T14:44:18;3.63;;;3.33;;
9445;SDS011;4761;49.490;10.908;2022-12-10T14:46:46;3.50;;;3.17;;
9445;SDS011;4761;49.490;10.908;2022-12-10T14:49:16;3.90;;;3.60;;
9445;SDS011;4761;49.490;10.908;2022-12-10T14:51:45;4.10;;;3.70;;
9445;SDS011;4761;49.490;10.908;2022-12-10T14:56:58;4.17;;;3.37;;
9445;SDS011;4761;49.490;10.908;2022-12-10T14:59:35;3.60;;;3.30;;
9445;SDS011;4761;49.490;10.908;2022-12-10T15:02:15;3.77;;;3.47;;
9445;SDS011;4761;49.490;10.908;2022-12-10T15:04:42;3.63;;;3.33;;
9445;SDS011;4761;49.490;10.908;2022-12-10T15:07:14;2.90;;;2.67;;
9445;SDS011;4761;49.490;10.908;2022-12-10T15:09:45;3.23;;;2.93;;
9445;SDS011;4761;49.490;10.908;2022-12-10T15:12:27;3.77;;;3.30;;
9445;SDS011;4761;49.490;10.908;2022-12-10T15:14:58;3.27;;;2.97;;
9445;SDS011;4761;49.490;10.908;2022-12-10T15:17:35;3.23;;;3.03;;
9445;SDS011;4761;49.490;10.908;2022-12-10T15:20:02;3.93;;;3.10;;
9445;SDS011;4761;49.490;10.908;2022-12-10T15:22:34;3.50;;;3.20;;
9445;SDS011;4761;49.490;10.908;2022-12-10T15:25:02;3.27;;;2.97;;
9445;SDS011;4761;49.490;10.908;2022-12-10T15:27:51;3.30;;;3.00;;
9445;SDS011;4761;49.490;10.908;2022-12-10T15:30:28;3.67;;;3.37;;
9445;SDS011;4761;49.490;10.908;2022-12-10T15:32:59;3.40;;;3.10;;
9445;SDS011;4761;49.490;10.908;2022-12-10T15:35:24;3.50;;;3.20;;
9445;SDS011;4761;49.490;10.908;2022-12-10T15:37:51;3.20;;;2.90;;
9445;SDS011;4761;49.490;10.908;2022-12-10T15:40:30;3.40;;;3.10;;
9445;SDS011;4761;49.490;10.908;2022-12-10T15:43:10;3.33;;;3.03;;
9445;SDS011;4761;49.490;10.908;2022-12-10T15:45:39;3.50;;;3.20;;
9445;SDS011;4761;49.490;10.908;2022-12-10T15:48:11;3.20;;;2.90;;
9445;SDS011;4761;49.490;10.908;2022-12-10T15:50:37;2.90;;;2.70;;
9445;SDS011;4761;49.490;10.908;2022-12-10T15:53:07;3.10;;;2.80;;
9445;SDS011;4761;49.490;10.908;2022-12-10T15:55:41;3.37;;;3.03;;
9445;SDS011;4761;49.490;10.908;2022-12-10T15:58:13;3.07;;;2.87;;
9445;SDS011;4761;49.490;10.908;2022-12-10T16:00:39;3.20;;;2.90;;
9445;SDS011;4761;49.490;10.908;2022-12-10T16:03:09;19.23;;;4.47;;
9445;SDS011;4761;49.490;10.908;2022-12-10T16:05:36;17.17;;;3.60;;
9445;SDS011;4761;49.490;10.908;2022-12-10T16:08:09;14.60;;;4.00;;
9445;SDS011;4761;49.490;10.908;2022-12-10T16:10:51;15.03;;;3.60;;
9445;SDS011;4761;49.490;10.908;2022-12-10T16:13:22;6.07;;;3.37;;
9445;SDS011;4761;49.490;10.908;2022-12-10T16:15:58;6.67;;;2.93;;
9445;SDS011;4761;49.490;10.908;2022-12-10T16:18:34;7.40;;;3.10;;
9445;SDS011;4761;49.490;10.908;2022-12-10T16:21:03;7.93;;;3.20;;
9445;SDS011;4761;49.490;10.908;2022-12-10T16:23:30;9.23;;;4.00;;
9445;SDS011;4761;49.490;10.908;2022-12-10T16:25:56;7.50;;;3.20;;
9445;SDS011;4761;49.490;10.908;2022-12-10T16:28:23;8.23;;;3.50;;
9445;SDS011;4761;49.490;10.908;2022-12-10T16:30:56;10.47;;;3.40;;
9445;SDS011;4761;49.490;10.908;2022-12-10T16:33:24;10.77;;;3.50;;
9445;SDS011;4761;49.490;10.908;2022-12-10T16:35:52;5.87;;;3.00;;
9445;SDS011;4761;49.490;10.908;2022-12-10T16:38:18;3.80;;;2.90;;
9445;SDS011;4761;49.490;10.908;2022-12-10T16:40:44;5.47;;;2.80;;
9445;SDS011;4761;49.490;10.908;2022-12-10T16:43:15;4.17;;;3.00;;
9445;SDS011;4761;49.490;10.908;2022-12-10T16:45:49;6.73;;;3.10;;
9445;SDS011;4761;49.490;10.908;2022-12-10T16:48:16;3.10;;;2.80;;
9445;SDS011;4761;49.490;10.908;2022-12-10T16:50:42;4.03;;;3.47;;
9445;SDS011;4761;49.490;10.908;2022-12-10T16:53:16;6.20;;;3.03;;